createdAt,value
2023-05-20T00:00:49.370Z,686.00
2023-05-20T00:01:48.483Z,651.00
2023-05-20T00:02:48.518Z,665.00
2023-05-20T00:03:49.646Z,673.00
2023-05-20T00:04:48.714Z,661.00
2023-05-20T00:05:49.552Z,693.00
2023-05-20T00:06:49.736Z,658.00
2023-05-20T00:07:48.648Z,688.00
2023-05-20T00:08:49.888Z,665.00
2023-05-20T00:09:49.761Z,659.00
2023-05-20T00:10:48.908Z,688.00
2023-05-20T00:11:49.809Z,660.00
2023-05-20T00:12:48.828Z,653.00
2023-05-20T00:13:50.102Z,657.00
2023-05-20T00:14:48.922Z,670.00
2023-05-20T00:15:49.005Z,663.00
2023-05-20T00:16:49.052Z,683.00
2023-05-20T00:17:50.052Z,675.00
2023-05-20T00:18:49.253Z,660.00
2023-05-20T00:19:50.100Z,659.00
2023-05-20T00:20:49.157Z,658.00
2023-05-20T00:21:49.172Z,659.00
2023-05-20T00:22:49.236Z,662.00
2023-05-20T00:23:50.303Z,658.00
2023-05-20T00:24:49.279Z,670.00
2023-05-20T00:25:49.356Z,651.00
2023-05-20T00:26:49.327Z,695.00
2023-05-20T00:27:49.600Z,665.00
2023-05-20T00:28:50.570Z,666.00
2023-05-20T00:29:50.707Z,665.00
2023-05-20T00:30:49.601Z,659.00
2023-05-20T00:31:49.542Z,676.00
2023-05-20T00:32:49.593Z,669.00
2023-05-20T00:33:49.562Z,691.00
2023-05-20T00:34:50.856Z,662.00
2023-05-20T00:35:49.894Z,663.00
2023-05-20T00:36:50.683Z,659.00
2023-05-20T00:37:49.948Z,671.00
2023-05-20T00:38:49.971Z,680.00
2023-05-20T00:39:49.853Z,650.00
2023-05-20T00:40:49.938Z,698.00
2023-05-20T00:41:49.918Z,658.00
2023-05-20T00:42:50.138Z,659.00
2023-05-20T00:43:50.254Z,662.00
2023-05-20T00:44:50.040Z,664.00
2023-05-20T00:45:50.351Z,665.00
2023-05-20T00:46:51.138Z,661.00
2023-05-20T00:47:50.139Z,665.00
2023-05-20T00:48:50.131Z,660.00
2023-05-20T00:49:50.609Z,691.00
2023-05-20T00:50:51.204Z,662.00
2023-05-20T00:51:50.194Z,685.00
2023-05-20T00:52:50.232Z,665.00
2023-05-20T00:53:51.266Z,660.00
2023-05-20T00:54:51.283Z,658.00
2023-05-20T00:55:51.323Z,652.00
2023-05-20T00:56:50.316Z,658.00
2023-05-20T00:57:51.361Z,701.00
2023-05-20T00:58:50.437Z,669.00
2023-05-20T00:59:51.698Z,682.00
2023-05-20T01:00:50.505Z,671.00
2023-05-20T01:01:51.624Z,653.00
2023-05-20T01:02:50.809Z,658.00
2023-05-20T01:03:51.807Z,662.00
2023-05-20T01:04:50.837Z,666.00
2023-05-20T01:05:51.634Z,658.00
2023-05-20T01:06:50.639Z,664.00
2023-05-20T01:07:50.910Z,678.00
2023-05-20T01:08:50.716Z,665.00
2023-05-20T01:09:51.793Z,690.00
2023-05-20T01:10:51.800Z,674.00
2023-05-20T01:11:51.813Z,658.00
2023-05-20T01:12:51.833Z,664.00
2023-05-20T01:13:50.902Z,670.00
2023-05-20T01:14:50.869Z,655.00
2023-05-20T01:15:51.068Z,655.00
2023-05-20T01:16:50.970Z,689.00
2023-05-20T01:17:52.144Z,650.00
2023-05-20T01:18:50.951Z,659.00
2023-05-20T01:19:50.926Z,670.00
2023-05-20T01:20:52.196Z,657.00
2023-05-20T01:21:52.179Z,666.00
2023-05-20T01:22:52.008Z,654.00
2023-05-20T01:23:51.239Z,662.00
2023-05-20T01:24:52.004Z,658.00
2023-05-20T01:25:50.988Z,656.00
2023-05-20T01:26:52.077Z,690.00
2023-05-20T01:27:52.005Z,659.00
2023-05-20T01:28:51.020Z,659.00
2023-05-20T01:29:51.102Z,657.00
2023-05-20T01:30:51.038Z,664.00
2023-05-20T01:31:52.201Z,660.00
2023-05-20T01:32:52.142Z,686.00
2023-05-20T01:33:52.187Z,666.00
2023-05-20T01:34:52.153Z,666.00
2023-05-20T01:35:52.269Z,643.00
2023-05-20T01:36:51.351Z,667.00
2023-05-20T01:37:51.087Z,656.00
2023-05-20T01:38:52.103Z,645.00
2023-05-20T01:39:52.394Z,660.00
2023-05-20T01:40:52.323Z,653.00
2023-05-20T01:41:52.131Z,660.00
2023-05-20T01:42:51.094Z,654.00
2023-05-20T01:43:52.194Z,660.00
2023-05-20T01:44:52.083Z,649.00
2023-05-20T01:45:51.334Z,664.00
2023-05-20T01:46:51.138Z,654.00
2023-05-20T01:47:51.231Z,655.00
2023-05-20T01:48:52.265Z,655.00
2023-05-20T01:49:52.329Z,655.00
2023-05-20T01:50:51.209Z,660.00
2023-05-20T01:51:52.179Z,655.00
2023-05-20T01:52:52.072Z,648.00
2023-05-20T01:53:52.074Z,660.00
2023-05-20T01:54:51.073Z,660.00
2023-05-20T01:55:51.128Z,646.00
2023-05-20T01:56:52.202Z,646.00
2023-05-20T01:57:51.106Z,649.00
2023-05-20T01:58:52.032Z,651.00
2023-05-20T01:59:52.017Z,660.00
2023-05-20T02:00:52.044Z,662.00
2023-05-20T02:01:52.148Z,649.00
2023-05-20T02:02:52.146Z,660.00
2023-05-20T02:03:51.032Z,655.00
2023-05-20T02:04:51.013Z,653.00
2023-05-20T02:05:52.197Z,657.00
2023-05-20T02:06:51.094Z,672.00
2023-05-20T02:07:52.209Z,653.00
2023-05-20T02:08:52.098Z,662.00
2023-05-20T02:09:51.115Z,654.00
2023-05-20T02:10:51.046Z,676.00
2023-05-20T02:11:52.169Z,649.00
2023-05-20T02:12:51.043Z,662.00
2023-05-20T02:13:51.033Z,660.00
2023-05-20T02:14:52.040Z,674.00
2023-05-20T02:15:51.067Z,652.00
2023-05-20T02:16:51.135Z,650.00
2023-05-20T02:17:51.280Z,654.00
2023-05-20T02:18:52.059Z,654.00
2023-05-20T02:19:51.061Z,648.00
2023-05-20T02:20:52.208Z,646.00
2023-05-20T02:21:51.092Z,653.00
2023-05-20T02:22:51.111Z,676.00
2023-05-20T02:23:51.107Z,659.00
2023-05-20T02:24:52.037Z,656.00
2023-05-20T02:25:52.075Z,657.00
2023-05-20T02:26:51.204Z,691.00
2023-05-20T02:27:51.024Z,667.00
2023-05-20T02:28:52.013Z,653.00
2023-05-20T02:29:52.016Z,660.00
2023-05-20T02:30:52.016Z,669.00
2023-05-20T02:31:51.019Z,676.00
2023-05-20T02:32:52.085Z,662.00
2023-05-20T02:33:51.163Z,654.00
2023-05-20T02:34:51.993Z,670.00
2023-05-20T02:35:52.037Z,642.00
2023-05-20T02:36:51.970Z,658.00
2023-05-20T02:37:51.000Z,651.00
2023-05-20T02:38:51.157Z,659.00
2023-05-20T02:39:51.069Z,651.00
2023-05-20T02:40:52.185Z,661.00
2023-05-20T02:41:51.044Z,666.00
2023-05-20T02:42:52.011Z,663.00
2023-05-20T02:43:51.965Z,659.00
2023-05-20T02:44:52.108Z,646.00
2023-05-20T02:45:51.996Z,650.00
2023-05-20T02:46:51.974Z,649.00
2023-05-20T02:47:52.029Z,661.00
2023-05-20T02:48:50.973Z,652.00
2023-05-20T02:49:52.002Z,652.00
2023-05-20T02:50:50.963Z,652.00
2023-05-20T02:51:50.957Z,656.00
2023-05-20T02:52:51.966Z,661.00
2023-05-20T02:53:51.008Z,650.00
2023-05-20T02:54:51.947Z,650.00
2023-05-20T02:55:50.955Z,649.00
2023-05-20T02:56:52.204Z,668.00
2023-05-20T02:57:52.074Z,667.00
2023-05-20T02:58:51.131Z,665.00
2023-05-20T02:59:50.976Z,656.00
2023-05-20T03:00:51.240Z,659.00
2023-05-20T03:01:52.290Z,663.00
2023-05-20T03:02:51.057Z,663.00
2023-05-20T03:03:52.015Z,654.00
2023-05-20T03:04:52.314Z,644.00
2023-05-20T03:05:50.952Z,658.00
2023-05-20T03:06:50.995Z,664.00
2023-05-20T03:07:50.953Z,675.00
2023-05-20T03:08:51.974Z,657.00
2023-05-20T03:09:50.997Z,662.00
2023-05-20T03:10:50.964Z,657.00
2023-05-20T03:11:52.121Z,669.00
2023-05-20T03:12:51.089Z,646.00
2023-05-20T03:13:52.105Z,660.00
2023-05-20T03:14:51.121Z,653.00
2023-05-20T03:15:52.083Z,656.00
2023-05-20T03:16:50.980Z,653.00
2023-05-20T03:17:51.987Z,665.00
2023-05-20T03:18:51.069Z,653.00
2023-05-20T03:19:50.973Z,646.00
2023-05-20T03:20:51.141Z,653.00
2023-05-20T03:21:52.034Z,661.00
2023-05-20T03:22:51.962Z,661.00
2023-05-20T03:23:51.980Z,652.00
2023-05-20T03:24:51.076Z,648.00
2023-05-20T03:25:50.998Z,654.00
2023-05-20T03:26:51.037Z,664.00
2023-05-20T03:27:51.029Z,664.00
2023-05-20T03:28:50.982Z,676.00
2023-05-20T03:29:50.977Z,654.00
2023-05-20T03:30:52.068Z,656.00
2023-05-20T03:31:51.250Z,656.00
2023-05-20T03:32:52.223Z,648.00
2023-05-20T03:33:51.238Z,651.00
2023-05-20T03:34:50.988Z,651.00
2023-05-20T03:35:51.004Z,649.00
2023-05-20T03:36:51.004Z,660.00
2023-05-20T03:37:52.199Z,641.00
2023-05-20T03:38:51.016Z,656.00
2023-05-20T03:39:51.020Z,657.00
2023-05-20T03:40:51.015Z,651.00
2023-05-20T03:41:52.077Z,651.00
2023-05-20T03:42:52.117Z,662.00
2023-05-20T03:43:52.091Z,662.00
2023-05-20T03:44:52.096Z,660.00
2023-05-20T03:45:51.362Z,656.00
2023-05-20T03:46:51.094Z,659.00
2023-05-20T03:47:51.095Z,657.00
2023-05-20T03:48:51.133Z,646.00
2023-05-20T03:49:51.194Z,654.00
2023-05-20T03:50:52.151Z,652.00
2023-05-20T03:51:51.260Z,669.00
2023-05-20T03:52:52.221Z,661.00
2023-05-20T03:53:52.224Z,659.00
2023-05-20T03:54:52.055Z,651.00
2023-05-20T03:55:52.063Z,666.00
2023-05-20T03:56:52.209Z,667.00
2023-05-20T03:57:51.094Z,657.00
2023-05-20T03:58:51.182Z,664.00
2023-05-20T03:59:51.278Z,656.00
2023-05-20T04:00:52.076Z,646.00
2023-05-20T04:01:52.298Z,669.00
2023-05-20T04:02:52.362Z,651.00
2023-05-20T04:03:52.233Z,656.00
2023-05-20T04:04:51.196Z,651.00
2023-05-20T04:05:52.191Z,647.00
2023-05-20T04:06:52.234Z,655.00
2023-05-20T04:07:51.113Z,657.00
2023-05-20T04:08:51.118Z,656.00
2023-05-20T04:09:52.228Z,644.00
2023-05-20T04:10:52.246Z,642.00
2023-05-20T04:11:51.122Z,636.00
2023-05-20T04:12:52.120Z,641.00
2023-05-20T04:13:51.348Z,663.00
2023-05-20T04:14:52.247Z,646.00
2023-05-20T04:15:52.144Z,648.00
2023-05-20T04:16:51.162Z,657.00
2023-05-20T04:17:52.154Z,648.00
2023-05-20T04:18:51.183Z,658.00
2023-05-20T04:19:52.189Z,661.00
2023-05-20T04:20:52.152Z,654.00
2023-05-20T04:21:52.301Z,655.00
2023-05-20T04:22:51.133Z,643.00
2023-05-20T04:23:51.184Z,654.00
2023-05-20T04:24:51.174Z,655.00
2023-05-20T04:25:52.156Z,649.00
2023-05-20T04:26:52.158Z,652.00
2023-05-20T04:27:52.233Z,652.00
2023-05-20T04:28:51.379Z,660.00
2023-05-20T04:29:51.236Z,659.00
2023-05-20T04:30:51.159Z,664.00
2023-05-20T04:31:51.210Z,648.00
2023-05-20T04:32:51.183Z,644.00
2023-05-20T04:33:51.190Z,652.00
2023-05-20T04:34:51.177Z,649.00
2023-05-20T04:35:51.168Z,662.00
2023-05-20T04:36:51.341Z,655.00
2023-05-20T04:37:52.228Z,656.00
2023-05-20T04:38:52.174Z,652.00
2023-05-20T04:39:51.150Z,650.00
2023-05-20T04:40:52.164Z,649.00
2023-05-20T04:41:52.379Z,652.00
2023-05-20T04:42:51.238Z,660.00
2023-05-20T04:43:51.139Z,643.00
2023-05-20T04:44:51.142Z,642.00
2023-05-20T04:45:51.752Z,638.00
2023-05-20T04:46:52.214Z,658.00
2023-05-20T04:47:52.193Z,663.00
2023-05-20T04:48:51.143Z,656.00
2023-05-20T04:49:51.270Z,658.00
2023-05-20T04:50:51.133Z,651.00
2023-05-20T04:51:52.268Z,654.00
2023-05-20T04:52:51.164Z,661.00
2023-05-20T04:53:51.136Z,665.00
2023-05-20T04:54:52.179Z,648.00
2023-05-20T04:55:52.144Z,656.00
2023-05-20T04:56:52.276Z,643.00
2023-05-20T04:57:51.271Z,649.00
2023-05-20T04:58:51.151Z,654.00
2023-05-20T04:59:52.188Z,656.00
2023-05-20T05:00:51.367Z,660.00
2023-05-20T05:01:51.226Z,641.00
2023-05-20T05:02:51.165Z,652.00
2023-05-20T05:03:51.101Z,639.00
2023-05-20T05:04:52.334Z,655.00
2023-05-20T05:05:52.111Z,663.00
2023-05-20T05:06:52.222Z,639.00
2023-05-20T05:07:51.105Z,647.00
2023-05-20T05:08:51.118Z,642.00
2023-05-20T05:09:51.149Z,659.00
2023-05-20T05:10:51.140Z,660.00
2023-05-20T05:11:51.143Z,677.00
2023-05-20T05:12:52.115Z,664.00
2023-05-20T05:13:52.111Z,644.00
2023-05-20T05:14:52.101Z,660.00
2023-05-20T05:15:52.154Z,658.00
2023-05-20T05:16:54.860Z,651.00
2023-05-20T05:17:52.207Z,651.00
2023-05-20T05:18:51.089Z,641.00
2023-05-20T05:19:51.137Z,651.00
2023-05-20T05:20:52.258Z,652.00
2023-05-20T05:21:51.078Z,660.00
2023-05-20T05:22:52.057Z,653.00
2023-05-20T05:23:51.060Z,655.00
2023-05-20T05:24:52.082Z,655.00
2023-05-20T05:25:52.042Z,639.00
2023-05-20T05:26:52.095Z,645.00
2023-05-20T05:27:51.027Z,651.00
2023-05-20T05:28:51.032Z,648.00
2023-05-20T05:29:51.158Z,654.00
2023-05-20T05:30:51.991Z,661.00
2023-05-20T05:31:51.034Z,649.00
2023-05-20T05:32:51.373Z,649.00
2023-05-20T05:33:51.045Z,654.00
2023-05-20T05:34:51.991Z,641.00
2023-05-20T05:35:51.996Z,661.00
2023-05-20T05:36:51.975Z,637.00
2023-05-20T05:37:50.966Z,654.00
2023-05-20T05:38:50.973Z,646.00
2023-05-20T05:39:51.929Z,639.00
2023-05-20T05:40:52.141Z,647.00
2023-05-20T05:41:51.051Z,635.00
2023-05-20T05:42:50.912Z,655.00
2023-05-20T05:43:50.914Z,653.00
2023-05-20T05:44:51.900Z,644.00
2023-05-20T05:45:50.917Z,651.00
2023-05-20T05:46:50.886Z,665.00
2023-05-20T05:47:52.038Z,651.00
2023-05-20T05:48:50.930Z,638.00
2023-05-20T05:49:50.895Z,638.00
2023-05-20T05:50:51.869Z,646.00
2023-05-20T05:51:51.894Z,646.00
2023-05-20T05:52:51.863Z,648.00
2023-05-20T05:53:51.911Z,644.00
2023-05-20T05:54:50.978Z,641.00
2023-05-20T05:55:50.893Z,639.00
2023-05-20T05:56:50.880Z,657.00
2023-05-20T05:57:50.797Z,641.00
2023-05-20T05:58:51.814Z,651.00
2023-05-20T05:59:51.939Z,640.00
2023-05-20T06:00:52.093Z,646.00
2023-05-20T06:01:50.982Z,647.00
2023-05-20T06:02:50.908Z,659.00
2023-05-20T06:03:51.933Z,644.00
2023-05-20T06:04:51.789Z,651.00
2023-05-20T06:05:51.050Z,647.00
2023-05-20T06:06:51.901Z,648.00
2023-05-20T06:07:50.846Z,646.00
2023-05-20T06:08:50.887Z,638.00
2023-05-20T06:09:50.927Z,643.00
2023-05-20T06:10:51.715Z,655.00
2023-05-20T06:11:51.866Z,654.00
2023-05-20T06:12:50.877Z,632.00
2023-05-20T06:13:50.787Z,637.00
2023-05-20T06:14:50.806Z,639.00
2023-05-20T06:15:50.944Z,642.00
2023-05-20T06:16:51.779Z,648.00
2023-05-20T06:17:50.687Z,650.00
2023-05-20T06:18:50.828Z,647.00
2023-05-20T06:19:51.679Z,636.00
2023-05-20T06:20:50.772Z,651.00
2023-05-20T06:21:51.631Z,636.00
2023-05-20T06:22:50.764Z,649.00
2023-05-20T06:23:50.616Z,645.00
2023-05-20T06:24:50.593Z,644.00
2023-05-20T06:25:51.752Z,645.00
2023-05-20T06:26:50.834Z,650.00
2023-05-20T06:27:50.638Z,655.00
2023-05-20T06:28:50.574Z,634.00
2023-05-20T06:29:50.565Z,641.00
2023-05-20T06:30:50.617Z,648.00
2023-05-20T06:31:51.651Z,644.00
2023-05-20T06:32:51.748Z,636.00
2023-05-20T06:33:50.761Z,645.00
2023-05-20T06:34:50.767Z,655.00
2023-05-20T06:35:50.830Z,647.00
2023-05-20T06:36:51.059Z,650.00
2023-05-20T06:37:51.986Z,651.00
2023-05-20T06:38:51.206Z,652.00
2023-05-20T06:39:52.072Z,649.00
2023-05-20T06:40:51.115Z,640.00
2023-05-20T06:41:51.232Z,642.00
2023-05-20T06:42:51.364Z,632.00
2023-05-20T06:43:53.480Z,631.00
2023-05-20T06:44:51.209Z,646.00
2023-05-20T06:45:52.615Z,653.00
2023-05-20T06:46:51.630Z,637.00
2023-05-20T06:47:51.497Z,638.00
2023-05-20T06:48:51.568Z,643.00
2023-05-20T06:49:52.540Z,645.00
2023-05-20T06:50:52.584Z,641.00
2023-05-20T06:51:51.679Z,641.00
2023-05-20T06:52:51.736Z,643.00
2023-05-20T06:53:52.898Z,647.00
2023-05-20T06:54:51.998Z,640.00
2023-05-20T06:55:51.830Z,645.00
2023-05-20T06:56:53.005Z,637.00
2023-05-20T06:57:51.945Z,643.00
2023-05-20T06:58:52.998Z,648.00
2023-05-20T06:59:53.063Z,641.00
2023-05-20T07:00:52.283Z,636.00
2023-05-20T07:01:53.407Z,652.00
2023-05-20T07:02:52.256Z,640.00
2023-05-20T07:03:52.362Z,636.00
2023-05-20T07:04:53.371Z,634.00
2023-05-20T07:05:53.417Z,634.00
2023-05-20T07:06:53.504Z,636.00
2023-05-20T07:07:53.725Z,643.00
2023-05-20T07:08:53.622Z,640.00
2023-05-20T07:09:52.693Z,636.00
2023-05-20T07:10:52.740Z,635.00
2023-05-20T07:11:52.807Z,640.00
2023-05-20T07:12:53.855Z,644.00
2023-05-20T07:13:53.972Z,634.00
2023-05-20T07:14:53.027Z,634.00
2023-05-20T07:15:54.065Z,638.00
2023-05-20T07:16:53.100Z,632.00
2023-05-20T07:17:53.207Z,639.00
2023-05-20T07:18:54.464Z,636.00
2023-05-20T07:19:53.509Z,644.00
2023-05-20T07:20:53.369Z,638.00
2023-05-20T07:21:53.448Z,633.00
2023-05-20T07:22:53.596Z,640.00
2023-05-20T07:23:54.637Z,636.00
2023-05-20T07:24:53.730Z,636.00
2023-05-20T07:25:54.700Z,633.00
2023-05-20T07:26:54.753Z,645.00
2023-05-20T07:27:54.782Z,636.00
2023-05-20T07:28:55.054Z,637.00
2023-05-20T07:29:54.066Z,638.00
2023-05-20T07:30:56.213Z,632.00
2023-05-20T07:31:54.064Z,635.00
2023-05-20T07:32:55.243Z,640.00
2023-05-20T07:33:55.134Z,644.00
2023-05-20T07:34:54.175Z,640.00
2023-05-20T07:35:55.343Z,645.00
2023-05-20T07:36:55.367Z,642.00
2023-05-20T07:37:54.368Z,645.00
2023-05-20T07:39:02.994Z,637.00
2023-05-20T07:39:55.568Z,637.00
2023-05-20T07:40:54.390Z,639.00
2023-05-20T07:41:55.424Z,639.00
2023-05-20T07:42:54.435Z,637.00
2023-05-20T07:43:55.387Z,635.00
2023-05-20T07:44:54.444Z,640.00
2023-05-20T07:45:54.602Z,639.00
2023-05-20T07:46:54.670Z,639.00
2023-05-20T07:47:55.394Z,641.00
2023-05-20T07:48:55.457Z,634.00
2023-05-20T07:49:55.541Z,635.00
2023-05-20T07:50:54.466Z,644.00
2023-05-20T07:51:54.622Z,638.00
2023-05-20T07:52:56.450Z,634.00
2023-05-20T07:53:55.531Z,643.00
2023-05-20T07:54:54.575Z,635.00
2023-05-20T07:55:54.639Z,642.00
2023-05-20T07:56:54.726Z,640.00
2023-05-20T07:57:55.913Z,645.00
2023-05-20T07:58:55.927Z,642.00
2023-05-20T07:59:55.960Z,644.00
2023-05-20T08:00:54.935Z,639.00
2023-05-20T08:01:56.058Z,638.00
2023-05-20T08:02:55.261Z,641.00
2023-05-20T08:03:56.266Z,636.00
2023-05-20T08:04:55.156Z,636.00
2023-05-20T08:05:56.256Z,639.00
2023-05-20T08:06:55.421Z,641.00
2023-05-20T08:07:56.357Z,631.00
2023-05-20T08:08:55.454Z,635.00
2023-05-20T08:09:55.469Z,635.00
2023-05-20T08:10:55.525Z,641.00
2023-05-20T08:11:55.646Z,647.00
2023-05-20T08:12:56.668Z,645.00
2023-05-20T08:13:55.817Z,641.00
2023-05-20T08:14:56.847Z,642.00
2023-05-20T08:15:56.812Z,636.00
2023-05-20T08:16:56.934Z,641.00
2023-05-20T08:17:56.964Z,653.00
2023-05-20T08:18:57.176Z,635.00
2023-05-20T08:19:56.021Z,640.00
2023-05-20T08:20:56.159Z,639.00
2023-05-20T08:21:57.134Z,632.00
2023-05-20T08:22:56.203Z,646.00
2023-05-20T08:23:56.243Z,631.00
2023-05-20T08:24:57.310Z,633.00
2023-05-20T08:25:56.350Z,641.00
2023-05-20T08:26:57.619Z,643.00
2023-05-20T08:27:56.432Z,637.00
2023-05-20T08:28:56.533Z,638.00
2023-05-20T08:29:58.100Z,631.00
2023-05-20T08:30:57.667Z,635.00
2023-05-20T08:31:56.581Z,643.00
2023-05-20T08:32:57.549Z,642.00
2023-05-20T08:33:57.511Z,638.00
2023-05-20T08:34:56.595Z,640.00
2023-05-20T08:35:57.584Z,638.00
2023-05-20T08:36:57.697Z,637.00
2023-05-20T08:41:47.769Z,500.00
2023-05-20T08:42:48.727Z,500.00
2023-05-20T08:43:47.917Z,500.00
2023-05-20T08:44:49.448Z,500.00
2023-05-20T08:45:47.771Z,500.00
2023-05-20T08:46:49.077Z,500.00
2023-05-20T08:47:48.901Z,494.00
2023-05-20T08:48:47.851Z,501.00
2023-05-20T08:49:48.835Z,500.00
2023-05-20T08:50:47.890Z,500.00
2023-05-20T08:51:48.937Z,504.00
2023-05-20T08:54:06.959Z,500.00
2023-05-20T08:55:07.944Z,500.00
2023-05-20T08:56:06.951Z,500.00
2023-05-20T08:57:07.944Z,500.00
2023-05-20T08:58:08.178Z,500.00
2023-05-20T08:59:07.103Z,500.00
2023-05-20T09:00:07.010Z,501.00
2023-05-20T09:01:07.173Z,507.00
2023-05-20T09:02:07.125Z,501.00
2023-05-20T09:03:06.966Z,500.00
2023-05-20T09:04:07.889Z,501.00
2023-05-20T09:05:06.928Z,506.00
2023-05-20T09:06:06.875Z,501.00
2023-05-20T09:07:07.916Z,503.00
2023-05-20T09:08:06.862Z,508.00
2023-05-20T09:09:07.889Z,506.00
2023-05-20T09:10:07.044Z,506.00
2023-05-20T09:11:08.057Z,505.00
2023-05-20T09:12:06.895Z,506.00
2023-05-20T09:13:07.881Z,506.00
2023-05-20T09:14:06.916Z,501.00
2023-05-20T09:15:07.839Z,506.00
2023-05-20T09:16:08.088Z,510.00
2023-05-20T09:17:07.074Z,508.00
2023-05-20T09:18:07.034Z,500.00
2023-05-20T09:19:07.860Z,501.00
2023-05-20T09:20:07.768Z,508.00
2023-05-20T09:21:06.784Z,506.00
2023-05-20T09:22:06.756Z,507.00
2023-05-20T09:23:06.725Z,504.00
2023-05-20T09:24:06.805Z,508.00
2023-05-20T09:25:06.843Z,502.00
2023-05-20T09:26:07.748Z,501.00
2023-05-20T09:27:07.719Z,502.00
2023-05-20T09:28:07.718Z,501.00
2023-05-20T09:29:07.729Z,503.00
2023-05-20T09:30:06.868Z,504.00
2023-05-20T09:31:07.896Z,506.00
2023-05-20T09:32:07.943Z,507.00
2023-05-20T09:33:06.949Z,506.00
2023-05-20T09:34:07.821Z,506.00
2023-05-20T09:35:06.763Z,505.00
2023-05-20T09:36:07.809Z,502.00
2023-05-20T09:37:07.871Z,506.00
2023-05-20T09:38:06.807Z,504.00
2023-05-20T09:39:06.938Z,506.00
2023-05-20T09:40:06.848Z,510.00
2023-05-20T09:41:06.881Z,506.00
2023-05-20T09:42:07.897Z,505.00
2023-05-20T09:43:07.101Z,503.00
2023-05-20T09:44:07.032Z,508.00
2023-05-20T09:45:07.960Z,505.00
2023-05-20T09:46:06.993Z,507.00
2023-05-20T09:47:08.662Z,507.00
2023-05-20T09:48:07.077Z,503.00
2023-05-20T09:49:08.090Z,508.00
2023-05-20T09:50:07.118Z,507.00
2023-05-20T09:51:07.157Z,510.00
2023-05-20T09:52:07.136Z,509.00
2023-05-20T09:53:07.255Z,508.00
2023-05-20T09:54:07.279Z,508.00
2023-05-20T09:55:08.214Z,510.00
2023-05-20T09:56:07.430Z,502.00
2023-05-20T09:57:08.298Z,502.00
2023-05-20T09:58:08.383Z,506.00
2023-05-20T09:59:07.340Z,514.00
2023-05-20T10:00:07.435Z,509.00
2023-05-20T10:01:08.429Z,516.00
2023-05-20T10:02:08.436Z,509.00
2023-05-20T10:03:07.561Z,506.00
2023-05-20T10:04:08.665Z,513.00
2023-05-20T10:05:07.517Z,517.00
2023-05-20T10:06:08.537Z,512.00
2023-05-20T10:07:08.708Z,516.00
2023-05-20T10:08:08.755Z,511.00
2023-05-20T10:09:08.561Z,511.00
2023-05-20T10:10:08.626Z,512.00
2023-05-20T10:11:08.755Z,510.00
2023-05-20T10:12:08.754Z,510.00
2023-05-20T10:13:07.651Z,508.00
2023-05-20T10:14:07.769Z,504.00
2023-05-20T10:15:07.874Z,509.00
2023-05-20T10:16:08.820Z,512.00
2023-05-20T10:17:08.175Z,509.00
2023-05-20T10:18:08.859Z,506.00
2023-05-20T10:19:08.887Z,511.00
2023-05-20T10:20:07.790Z,513.00
2023-05-20T10:21:08.834Z,511.00
2023-05-20T10:22:09.167Z,512.00
2023-05-20T10:23:08.931Z,502.00
2023-05-20T10:24:08.890Z,511.00
2023-05-20T10:25:08.896Z,511.00
2023-05-20T10:26:08.904Z,503.00
2023-05-20T10:27:08.937Z,506.00
2023-05-20T10:28:08.106Z,512.00
2023-05-20T10:29:10.287Z,508.00
2023-05-20T10:30:07.942Z,513.00
2023-05-20T10:31:08.937Z,513.00
2023-05-20T10:32:08.955Z,506.00
2023-05-20T10:33:08.057Z,506.00
2023-05-20T10:34:08.034Z,508.00
2023-05-20T10:35:08.892Z,502.00
2023-05-20T10:36:07.893Z,509.00
2023-05-20T10:37:07.908Z,506.00
2023-05-20T10:38:07.928Z,503.00
2023-05-20T10:39:07.869Z,507.00
2023-05-20T10:40:07.879Z,502.00
2023-05-20T10:41:07.851Z,505.00
2023-05-20T10:42:07.895Z,506.00
2023-05-20T10:43:07.835Z,503.00
2023-05-20T10:44:07.830Z,506.00
2023-05-20T10:45:08.839Z,512.00
2023-05-20T10:46:17.119Z,503.00
2023-05-20T10:47:24.587Z,504.00
2023-05-20T10:48:08.963Z,504.00
2023-05-20T10:49:08.928Z,506.00
2023-05-20T10:50:07.896Z,506.00
2023-05-20T10:51:07.778Z,506.00
2023-05-20T10:52:08.830Z,503.00
2023-05-20T10:53:15.779Z,504.00
2023-05-20T10:54:08.751Z,504.00
2023-05-20T10:55:08.975Z,505.00
2023-05-20T10:56:08.967Z,504.00
2023-05-20T10:57:08.901Z,509.00
2023-05-20T10:58:07.731Z,508.00
2023-05-20T10:59:08.726Z,509.00
2023-05-20T11:00:08.719Z,500.00
2023-05-20T11:01:08.742Z,509.00
2023-05-20T11:02:07.694Z,512.00
2023-05-20T11:03:08.755Z,507.00
2023-05-20T11:04:08.979Z,510.00
2023-05-20T11:05:07.810Z,509.00
2023-05-20T11:06:08.706Z,502.00
2023-05-20T11:07:07.672Z,505.00
2023-05-20T11:08:20.553Z,508.00
2023-05-20T11:09:08.870Z,508.00
2023-05-20T11:10:08.637Z,508.00
2023-05-20T11:11:08.632Z,509.00
2023-05-20T11:12:07.613Z,509.00
2023-05-20T11:13:08.033Z,508.00
2023-05-20T11:14:08.596Z,500.00
2023-05-20T11:15:07.590Z,509.00
2023-05-20T11:16:07.683Z,510.00
2023-05-20T11:17:07.759Z,505.00
2023-05-20T11:18:07.889Z,505.00
2023-05-20T11:19:07.596Z,503.00
2023-05-20T11:20:08.618Z,506.00
2023-05-20T11:21:07.602Z,506.00
2023-05-20T11:22:07.652Z,501.00
2023-05-20T11:23:07.537Z,505.00
2023-05-20T11:24:08.559Z,505.00
2023-05-20T11:25:07.570Z,506.00
2023-05-20T11:26:08.535Z,505.00
2023-05-20T11:27:08.590Z,504.00
2023-05-20T11:28:08.683Z,504.00
2023-05-20T11:29:07.508Z,501.00
2023-05-20T11:30:08.476Z,510.00
2023-05-20T11:31:07.635Z,504.00
2023-05-20T11:32:08.574Z,504.00
2023-05-20T11:33:08.505Z,508.00
2023-05-20T11:34:08.458Z,506.00
2023-05-20T11:35:08.673Z,503.00
2023-05-20T11:36:16.314Z,508.00
2023-05-20T11:37:08.428Z,509.00
2023-05-20T11:38:08.478Z,510.00
2023-05-20T11:39:08.497Z,509.00
2023-05-20T11:40:08.598Z,513.00
2023-05-20T11:41:07.584Z,513.00
2023-05-20T11:42:07.441Z,511.00
2023-05-20T11:43:07.520Z,510.00
2023-05-20T11:44:08.475Z,512.00
2023-05-20T11:45:07.413Z,510.00
2023-05-20T11:46:07.432Z,511.00
2023-05-20T11:47:07.605Z,506.00
2023-05-20T11:48:07.678Z,509.00
2023-05-20T11:49:08.369Z,506.00
2023-05-20T11:50:07.502Z,507.00
2023-05-20T11:51:07.526Z,515.00
2023-05-20T11:52:08.434Z,509.00
2023-05-20T11:53:07.308Z,511.00
2023-05-20T11:54:08.296Z,507.00
2023-05-20T11:55:08.360Z,515.00
2023-05-20T11:56:08.291Z,516.00
2023-05-20T11:57:08.306Z,505.00
2023-05-20T11:58:08.284Z,508.00
2023-05-20T11:59:08.276Z,509.00
2023-05-20T12:00:07.431Z,514.00
2023-05-20T12:01:21.043Z,508.00
2023-05-20T12:02:08.273Z,508.00
2023-05-20T12:03:07.514Z,509.00
2023-05-20T12:04:07.342Z,511.00
2023-05-20T12:05:08.218Z,513.00
2023-05-20T12:06:08.258Z,510.00
2023-05-20T12:07:08.196Z,514.00
2023-05-20T12:08:08.204Z,507.00
2023-05-20T12:09:07.298Z,515.00
2023-05-20T12:10:07.318Z,519.00
2023-05-20T12:11:08.414Z,511.00
2023-05-20T12:12:07.157Z,506.00
2023-05-20T12:13:07.171Z,509.00
2023-05-20T12:14:08.142Z,510.00
2023-05-20T12:15:08.243Z,518.00
2023-05-20T12:16:07.296Z,513.00
2023-05-20T12:17:08.153Z,508.00
2023-05-20T12:18:07.230Z,510.00
2023-05-20T12:19:08.156Z,510.00
2023-05-20T12:20:08.113Z,517.00
2023-05-20T12:21:07.270Z,516.00
2023-05-20T12:22:07.111Z,517.00
2023-05-20T12:23:07.093Z,516.00
2023-05-20T12:24:08.088Z,513.00
2023-05-20T12:25:07.053Z,515.00
2023-05-20T12:26:07.076Z,514.00
2023-05-20T12:27:08.205Z,514.00
2023-05-20T12:28:08.171Z,518.00
2023-05-20T12:29:07.136Z,513.00
2023-05-20T12:30:08.070Z,518.00
2023-05-20T12:31:07.145Z,514.00
2023-05-20T12:32:07.319Z,513.00
2023-05-20T12:33:08.133Z,514.00
2023-05-20T12:34:08.077Z,514.00